createdAt,value
2018-12-15T00:02:21.470Z,19.40
2018-12-15T00:04:49.917Z,20.43
2018-12-15T00:07:18.417Z,20.43
2018-12-15T00:09:46.810Z,20.35
2018-12-15T00:12:15.335Z,19.27
2018-12-15T00:14:44.221Z,19.23
2018-12-15T00:17:12.765Z,18.50
2018-12-15T00:19:41.506Z,17.73
2018-12-15T00:22:10.006Z,17.73
2018-12-15T00:24:38.279Z,17.73
2018-12-15T00:27:06.643Z,19.05
2018-12-15T00:29:34.888Z,16.90
2018-12-15T00:32:03.161Z,16.48
2018-12-15T00:34:31.538Z,16.25
2018-12-15T00:36:59.782Z,17.17
2018-12-15T00:39:28.079Z,15.68
2018-12-15T00:41:56.317Z,14.50
2018-12-15T00:44:24.525Z,15.35
2018-12-15T00:46:52.769Z,15.80
2018-12-15T00:49:21.056Z,16.77
2018-12-15T00:51:49.343Z,17.40
2018-12-15T00:54:17.605Z,15.13
2018-12-15T00:56:45.888Z,16.85
2018-12-15T00:59:14.110Z,16.20
2018-12-15T01:01:42.478Z,16.48
2018-12-15T01:04:10.745Z,15.10
2018-12-15T01:06:39.233Z,16.00
2018-12-15T01:09:07.552Z,15.93
2018-12-15T01:11:35.803Z,16.12
2018-12-15T01:14:04.135Z,15.73
2018-12-15T01:16:32.395Z,17.35
2018-12-15T01:19:00.708Z,16.00
2018-12-15T01:21:28.991Z,15.53
2018-12-15T01:23:57.250Z,16.48
2018-12-15T01:26:25.527Z,15.45
2018-12-15T01:28:53.841Z,15.95
2018-12-15T01:31:22.098Z,15.55
2018-12-15T01:33:50.511Z,15.78
2018-12-15T01:36:18.804Z,16.02
2018-12-15T01:38:47.117Z,15.10
2018-12-15T01:41:15.464Z,15.15
2018-12-15T01:43:43.765Z,16.35
2018-12-15T01:46:12.066Z,14.78
2018-12-15T01:48:40.309Z,16.55
2018-12-15T01:51:08.646Z,14.90
2018-12-15T01:53:37.057Z,13.98
2018-12-15T01:56:05.377Z,15.05
2018-12-15T01:58:33.589Z,13.80
2018-12-15T02:01:01.889Z,13.10
2018-12-15T02:03:30.278Z,12.10
2018-12-15T02:05:58.567Z,12.90
2018-12-15T02:08:27.022Z,14.20
2018-12-15T02:10:55.302Z,12.93
2018-12-15T02:13:23.521Z,14.03
2018-12-15T02:15:51.814Z,13.28
2018-12-15T02:18:20.213Z,12.20
2018-12-15T02:20:48.637Z,12.93
2018-12-15T02:23:17.075Z,12.10
2018-12-15T02:25:45.396Z,13.13
2018-12-15T02:28:13.673Z,13.53
2018-12-15T02:30:42.011Z,12.18
2018-12-15T02:33:10.590Z,11.50
2018-12-15T02:35:38.862Z,12.05
2018-12-15T02:38:07.196Z,11.85
2018-12-15T02:40:35.492Z,12.25
2018-12-15T02:43:03.796Z,10.00
2018-12-15T02:45:32.726Z,10.50
2018-12-15T02:48:00.940Z,11.00
2018-12-15T02:50:29.162Z,10.70
2018-12-15T02:52:57.488Z,10.30
2018-12-15T02:55:25.711Z,9.80
2018-12-15T02:57:53.971Z,9.70
2018-12-15T03:00:22.391Z,8.93
2018-12-15T03:02:50.668Z,9.90
2018-12-15T03:05:18.961Z,8.18
2018-12-15T03:07:47.288Z,8.10
2018-12-15T03:10:15.604Z,9.70
2018-12-15T03:12:43.968Z,8.65
2018-12-15T03:15:12.355Z,8.60
2018-12-15T03:17:40.593Z,10.00
2018-12-15T03:20:08.837Z,9.53
2018-12-15T03:22:37.198Z,9.68
2018-12-15T03:25:05.883Z,9.48
2018-12-15T03:27:34.101Z,8.65
2018-12-15T03:30:02.578Z,9.43
2018-12-15T03:32:30.849Z,9.38
2018-12-15T03:34:59.217Z,8.90
2018-12-15T03:37:27.488Z,10.08
2018-12-15T03:39:55.907Z,9.20
2018-12-15T03:42:24.157Z,10.82
2018-12-15T03:44:52.410Z,10.50
2018-12-15T03:47:20.707Z,9.75
2018-12-15T03:49:49.140Z,10.00
2018-12-15T03:52:17.367Z,10.20
2018-12-15T03:54:45.705Z,9.53
2018-12-15T03:57:13.963Z,9.88
2018-12-15T03:59:42.347Z,10.18
2018-12-15T04:02:10.740Z,9.63
2018-12-15T04:04:39.314Z,10.70
2018-12-15T04:07:07.760Z,11.40
2018-12-15T04:09:36.050Z,11.83
2018-12-15T04:12:04.327Z,10.40
2018-12-15T04:14:32.518Z,10.67
2018-12-15T04:17:00.778Z,10.70
2018-12-15T04:19:29.175Z,10.63
2018-12-15T04:22:08.846Z,11.40
2018-12-15T04:24:37.198Z,10.25
2018-12-15T04:27:05.558Z,10.30
2018-12-15T04:29:33.866Z,10.55
2018-12-15T04:32:02.118Z,9.90
2018-12-15T04:34:30.356Z,10.43
2018-12-15T04:36:58.673Z,11.10
2018-12-15T04:39:26.914Z,10.10
2018-12-15T04:41:55.116Z,11.03
2018-12-15T04:44:23.426Z,9.90
2018-12-15T04:46:52.009Z,10.00
2018-12-15T04:49:20.806Z,10.65
2018-12-15T04:51:49.197Z,10.90
2018-12-15T04:54:17.516Z,10.87
2018-12-15T04:56:45.801Z,10.70
2018-12-15T04:59:14.212Z,10.63
2018-12-15T05:01:42.475Z,10.80
2018-12-15T05:04:10.671Z,11.00
2018-12-15T05:06:39.015Z,10.50
2018-12-15T05:09:07.289Z,11.00
2018-12-15T05:11:35.613Z,10.50
2018-12-15T05:14:03.991Z,10.20
2018-12-15T05:16:32.380Z,11.10
2018-12-15T05:19:00.739Z,10.15
2018-12-15T05:21:28.949Z,10.55
2018-12-15T05:23:57.198Z,10.85
2018-12-15T05:26:25.505Z,9.83
2018-12-15T05:28:53.790Z,10.23
2018-12-15T05:31:22.048Z,10.70
2018-12-15T05:33:50.271Z,10.17
2018-12-15T05:36:18.588Z,11.30
2018-12-15T05:38:46.909Z,11.18
2018-12-15T05:41:15.178Z,10.88
2018-12-15T05:43:43.472Z,11.30
2018-12-15T05:46:11.903Z,12.73
2018-12-15T05:48:40.130Z,11.47
2018-12-15T05:51:08.478Z,11.95
2018-12-15T05:53:36.720Z,12.30
2018-12-15T05:56:04.927Z,12.75
2018-12-15T05:58:33.224Z,12.05
2018-12-15T06:01:01.453Z,13.25
2018-12-15T06:03:29.712Z,12.65
2018-12-15T06:05:57.975Z,11.60
2018-12-15T06:08:26.252Z,12.20
2018-12-15T06:10:54.585Z,12.13
2018-12-15T06:13:22.824Z,12.60
2018-12-15T06:15:51.178Z,13.48
2018-12-15T06:18:19.392Z,12.18
2018-12-15T06:20:47.631Z,13.45
2018-12-15T06:23:15.904Z,13.13
2018-12-15T06:25:44.140Z,12.75
2018-12-15T06:28:12.451Z,11.60
2018-12-15T06:30:40.934Z,13.43
2018-12-15T06:33:09.179Z,13.08
2018-12-15T06:35:37.527Z,14.03
2018-12-15T06:38:06.518Z,14.05
2018-12-15T06:40:34.730Z,16.07
2018-12-15T06:43:03.072Z,13.50
2018-12-15T06:45:31.421Z,13.38
2018-12-15T06:47:59.660Z,12.60
2018-12-15T06:50:27.967Z,13.28
2018-12-15T06:52:56.344Z,13.60
2018-12-15T06:55:24.552Z,14.05
2018-12-15T06:57:52.786Z,13.95
2018-12-15T07:00:21.156Z,13.10
2018-12-15T07:02:49.379Z,14.87
2018-12-15T07:05:17.847Z,14.90
2018-12-15T07:07:46.089Z,13.43
2018-12-15T07:10:14.338Z,14.23
2018-12-15T07:12:42.637Z,13.43
2018-12-15T07:15:10.905Z,14.28
2018-12-15T07:17:39.310Z,14.70
2018-12-15T07:20:07.744Z,14.30
2018-12-15T07:22:36.072Z,14.90
2018-12-15T07:25:04.648Z,14.65
2018-12-15T07:27:32.965Z,13.50
2018-12-15T07:30:01.258Z,16.07
2018-12-15T07:32:29.672Z,14.78
2018-12-15T07:35:00.908Z,13.40
2018-12-15T07:37:28.632Z,15.60
2018-12-15T07:39:57.095Z,14.80
2018-12-15T07:42:25.472Z,13.70
2018-12-15T07:44:53.812Z,14.85
2018-12-15T07:47:22.224Z,13.53
2018-12-15T07:49:50.517Z,12.82
2018-12-15T07:52:18.882Z,14.15
2018-12-15T07:54:47.157Z,13.10
2018-12-15T07:57:15.378Z,13.83
2018-12-15T07:59:43.616Z,14.45
2018-12-15T08:02:12.014Z,12.80
2018-12-15T08:04:40.234Z,12.40
2018-12-15T08:07:08.677Z,13.10
2018-12-15T08:09:37.480Z,13.25
2018-12-15T08:12:11.272Z,13.15
2018-12-15T08:14:39.929Z,13.95
2018-12-15T08:17:08.234Z,40.20
2018-12-15T08:19:36.465Z,14.13
2018-12-15T08:22:05.009Z,14.23
2018-12-15T08:24:33.307Z,12.93
2018-12-15T08:27:01.539Z,13.85
2018-12-15T08:29:29.949Z,13.68
2018-12-15T08:31:58.516Z,14.15
2018-12-15T08:34:26.774Z,13.72
2018-12-15T08:36:55.131Z,13.05
2018-12-15T08:39:23.645Z,14.25
2018-12-15T08:41:51.975Z,14.43
2018-12-15T08:44:20.328Z,13.38
2018-12-15T08:46:48.681Z,13.18
2018-12-15T08:49:16.993Z,13.20
2018-12-15T08:51:45.258Z,14.27
2018-12-15T08:54:13.526Z,12.47
2018-12-15T08:56:41.901Z,14.18
2018-12-15T08:59:10.529Z,14.70
2018-12-15T09:01:38.755Z,42.73
2018-12-15T09:04:07.028Z,16.32
2018-12-15T09:06:35.418Z,14.85
2018-12-15T09:09:06.177Z,14.45
2018-12-15T09:11:34.522Z,14.75
2018-12-15T09:14:02.912Z,15.80
2018-12-15T09:16:31.214Z,17.02
2018-12-15T09:18:59.523Z,14.45
2018-12-15T09:21:27.816Z,15.00
2018-12-15T09:23:56.198Z,15.27
2018-12-15T09:26:24.565Z,16.70
2018-12-15T09:28:52.882Z,18.23
2018-12-15T09:31:21.264Z,17.27
2018-12-15T09:33:49.487Z,17.27
2018-12-15T09:36:17.887Z,16.95
2018-12-15T09:38:46.217Z,16.42
2018-12-15T09:41:14.512Z,15.93
2018-12-15T09:43:42.995Z,17.03
2018-12-15T09:46:11.404Z,15.20
2018-12-15T09:48:39.769Z,16.60
2018-12-15T09:51:08.040Z,15.90
2018-12-15T09:53:36.337Z,14.80
2018-12-15T09:56:04.761Z,15.88
2018-12-15T09:58:33.025Z,16.30
2018-12-15T10:01:01.444Z,16.42
2018-12-15T10:03:29.973Z,16.30
2018-12-15T10:05:58.375Z,17.40
2018-12-15T10:08:26.775Z,17.23
2018-12-15T10:10:55.056Z,17.77
2018-12-15T10:13:23.512Z,17.52
2018-12-15T10:15:51.859Z,17.87
2018-12-15T10:18:20.110Z,19.12
2018-12-15T10:20:48.331Z,17.95
2018-12-15T10:23:16.718Z,18.42
2018-12-15T10:25:45.065Z,18.50
2018-12-15T10:28:13.335Z,19.12
2018-12-15T10:30:47.171Z,21.03
2018-12-15T10:33:15.449Z,18.77
2018-12-15T10:35:43.725Z,18.50
2018-12-15T10:38:12.035Z,19.40
2018-12-15T10:40:40.290Z,18.60
2018-12-15T10:43:08.557Z,18.50
2018-12-15T10:45:36.911Z,17.50
2018-12-15T10:48:05.299Z,17.37
2018-12-15T10:57:19.591Z,19.42
2018-12-15T10:59:48.025Z,18.95
2018-12-15T11:02:16.492Z,18.17
2018-12-15T11:04:44.810Z,19.32
2018-12-15T11:07:13.074Z,21.93
2018-12-15T11:09:41.343Z,21.85
2018-12-15T11:12:09.712Z,19.12
2018-12-15T11:14:38.230Z,19.45
2018-12-15T11:17:06.623Z,19.05
2018-12-15T11:19:37.294Z,19.55
2018-12-15T11:22:05.162Z,20.03
2018-12-15T11:24:33.449Z,19.82
2018-12-15T11:27:01.837Z,18.20
2018-12-15T11:29:30.177Z,19.60
2018-12-15T11:31:58.515Z,19.23
2018-12-15T11:34:26.811Z,18.92
2018-12-15T11:36:55.194Z,19.73
2018-12-15T11:39:23.603Z,19.23
2018-12-15T11:41:51.956Z,20.32
2018-12-15T11:44:20.175Z,19.52
2018-12-15T11:46:48.638Z,17.73
2018-12-15T11:49:17.067Z,18.48
2018-12-15T11:51:45.403Z,19.25
2018-12-15T11:54:13.722Z,20.05
2018-12-15T11:56:42.181Z,19.40
2018-12-15T11:59:10.401Z,18.90
2018-12-15T12:01:38.776Z,20.57
2018-12-15T12:04:07.104Z,22.98
2018-12-15T12:06:35.439Z,22.77
2018-12-15T12:09:05.216Z,19.25
2018-12-15T12:11:33.726Z,22.87
2018-12-15T12:14:02.041Z,21.17
2018-12-15T12:16:30.410Z,20.85
2018-12-15T12:18:58.731Z,21.10
2018-12-15T12:21:27.068Z,21.73
2018-12-15T12:23:55.434Z,20.57
2018-12-15T12:26:23.753Z,21.33
2018-12-15T12:28:51.978Z,22.37
2018-12-15T12:31:20.442Z,22.98
2018-12-15T12:33:48.791Z,21.37
2018-12-15T12:36:17.250Z,21.60
2018-12-15T12:38:45.681Z,21.15
2018-12-15T12:41:14.002Z,19.50
2018-12-15T12:43:42.320Z,22.30
2018-12-15T12:46:10.648Z,21.68
2018-12-15T12:48:38.965Z,22.55
2018-12-15T12:51:07.489Z,20.35
2018-12-15T12:53:35.878Z,20.85
2018-12-15T12:56:04.717Z,20.77
2018-12-15T12:58:32.967Z,21.87
2018-12-15T13:01:01.287Z,64.60
2018-12-15T13:03:29.607Z,49.42
2018-12-15T13:05:57.921Z,21.45
2018-12-15T13:08:26.137Z,22.10
2018-12-15T13:10:55.196Z,23.25
2018-12-15T13:13:23.538Z,22.35
2018-12-15T13:15:52.566Z,21.20
2018-12-15T13:18:20.823Z,21.20
2018-12-15T13:20:49.142Z,21.55
2018-12-15T13:23:17.582Z,21.25
2018-12-15T13:25:45.880Z,21.63
2018-12-15T13:28:14.105Z,21.20
2018-12-15T13:30:42.429Z,21.15
2018-12-15T13:33:22.295Z,22.58
2018-12-15T13:35:50.592Z,24.63
2018-12-15T13:38:18.866Z,20.77
2018-12-15T13:40:47.229Z,24.45
2018-12-15T13:43:15.442Z,22.73
2018-12-15T13:45:44.047Z,23.30
2018-12-15T13:48:12.347Z,25.73
2018-12-15T13:50:40.602Z,23.00
2018-12-15T13:53:08.903Z,23.30
2018-12-15T13:55:37.440Z,22.05
2018-12-15T13:58:05.707Z,22.93
2018-12-15T14:00:33.985Z,23.50
2018-12-15T14:03:02.217Z,22.93
2018-12-15T14:05:30.544Z,22.62
2018-12-15T14:07:58.845Z,24.80
2018-12-15T14:10:27.133Z,28.00
2018-12-15T14:12:55.505Z,47.50
2018-12-15T14:15:23.906Z,22.10
2018-12-15T14:17:52.323Z,23.50
2018-12-15T14:20:20.665Z,20.92
2018-12-15T14:22:49.003Z,24.00
2018-12-15T14:25:17.437Z,29.55
2018-12-15T14:27:45.664Z,24.82
2018-12-15T14:30:13.953Z,24.50
2018-12-15T14:32:42.230Z,22.98
2018-12-15T14:35:10.618Z,22.73
2018-12-15T14:37:38.865Z,23.17
2018-12-15T14:40:07.235Z,24.52
2018-12-15T14:42:35.666Z,23.27
2018-12-15T14:45:04.077Z,22.85
2018-12-15T14:47:33.423Z,22.03
2018-12-15T14:50:01.750Z,23.47
2018-12-15T14:52:30.035Z,23.83
2018-12-15T14:54:58.359Z,22.98
2018-12-15T14:57:26.631Z,21.75
2018-12-15T14:59:55.027Z,23.90
2018-12-15T15:02:23.223Z,22.35
2018-12-15T15:04:51.591Z,23.20
2018-12-15T15:07:20.283Z,25.10
2018-12-15T15:09:48.707Z,23.87
2018-12-15T15:12:17.082Z,22.90
2018-12-15T15:14:45.323Z,26.20
2018-12-15T15:17:13.847Z,23.80
2018-12-15T15:19:42.112Z,24.20
2018-12-15T15:22:10.632Z,24.77
2018-12-15T15:24:38.948Z,23.87
2018-12-15T15:27:07.765Z,25.45
2018-12-15T15:29:36.136Z,24.47
2018-12-15T15:32:04.607Z,23.70
2018-12-15T15:34:33.095Z,27.05
2018-12-15T15:37:01.571Z,25.00
2018-12-15T15:39:29.988Z,26.57
2018-12-15T15:41:58.491Z,25.62
2018-12-15T15:44:26.793Z,29.92
2018-12-15T15:46:55.189Z,30.95
2018-12-15T15:49:23.660Z,25.48
2018-12-15T15:51:51.968Z,25.48
2018-12-15T15:54:20.289Z,23.60
2018-12-15T15:56:48.730Z,27.05
2018-12-15T15:59:17.161Z,26.40
2018-12-15T16:01:45.429Z,26.87
2018-12-15T16:04:13.718Z,24.50
2018-12-15T16:06:43.257Z,24.45
2018-12-15T16:09:11.608Z,27.20
2018-12-15T16:11:40.012Z,25.15
2018-12-15T16:14:08.282Z,25.90
2018-12-15T16:16:36.694Z,25.95
2018-12-15T16:19:05.088Z,26.90
2018-12-15T16:21:34.239Z,25.72
2018-12-15T16:24:02.634Z,27.25
2018-12-15T16:26:30.885Z,27.45
2018-12-15T16:28:59.204Z,27.82
2018-12-15T16:31:27.453Z,27.42
2018-12-15T16:33:55.707Z,26.60
2018-12-15T16:36:24.182Z,27.85
2018-12-15T16:38:54.204Z,27.15
2018-12-15T16:41:22.574Z,29.17
2018-12-15T16:43:50.852Z,28.62
2018-12-15T16:46:19.269Z,27.40
2018-12-15T16:48:47.551Z,33.08
2018-12-15T16:51:15.897Z,30.68
2018-12-15T16:53:44.276Z,27.22
2018-12-15T16:56:12.514Z,32.03
2018-12-15T16:58:40.863Z,28.85
2018-12-15T17:01:09.372Z,28.15
2018-12-15T17:03:37.647Z,28.35
2018-12-15T17:06:06.047Z,28.67
2018-12-15T17:08:34.688Z,30.55
2018-12-15T17:11:03.269Z,29.48
2018-12-15T17:13:31.627Z,29.65
2018-12-15T17:16:00.152Z,28.95
2018-12-15T17:18:28.429Z,29.95
2018-12-15T17:20:57.055Z,29.97
2018-12-15T17:23:25.539Z,30.70
2018-12-15T17:25:53.870Z,32.08
2018-12-15T17:28:22.282Z,30.03
2018-12-15T17:30:50.610Z,35.88
2018-12-15T17:33:18.863Z,31.02
2018-12-15T17:35:47.072Z,31.10
2018-12-15T17:38:15.399Z,31.33
2018-12-15T17:40:43.725Z,32.63
2018-12-15T17:43:12.136Z,32.38
2018-12-15T17:45:40.494Z,31.62
2018-12-15T17:48:08.771Z,32.40
2018-12-15T17:50:37.120Z,33.35
2018-12-15T17:53:05.387Z,30.73
2018-12-15T17:55:33.699Z,33.15
2018-12-15T17:58:02.057Z,31.73
2018-12-15T18:00:30.447Z,32.15
2018-12-15T18:02:58.931Z,32.57
2018-12-15T18:05:27.329Z,30.97
2018-12-15T18:07:55.596Z,29.85
2018-12-15T18:10:23.963Z,32.53
2018-12-15T18:12:52.336Z,32.90
2018-12-15T18:15:20.682Z,31.73
2018-12-15T18:17:48.904Z,30.12
2018-12-15T18:20:17.270Z,33.33
2018-12-15T18:22:45.592Z,32.08
2018-12-15T18:25:13.940Z,31.65
2018-12-15T18:27:42.239Z,33.25
2018-12-15T18:30:11.444Z,35.48
2018-12-15T18:32:39.993Z,33.48
2018-12-15T18:35:08.441Z,31.97
2018-12-15T18:37:36.842Z,37.10
2018-12-15T18:40:05.752Z,31.73
2018-12-15T18:42:34.181Z,33.40
2018-12-15T18:45:02.613Z,33.75
2018-12-15T18:47:31.009Z,34.33
2018-12-15T18:49:59.331Z,36.03
2018-12-15T18:52:27.858Z,33.05
2018-12-15T18:54:56.182Z,35.43
2018-12-15T18:57:24.525Z,33.42
2018-12-15T18:59:52.783Z,39.00
2018-12-15T19:02:21.178Z,40.10
2018-12-15T19:04:49.481Z,36.70
2018-12-15T19:07:17.897Z,36.15
2018-12-15T19:09:46.138Z,33.85
2018-12-15T19:12:14.638Z,37.30
2018-12-15T19:14:43.111Z,35.23
2018-12-15T19:17:11.394Z,35.95
2018-12-15T19:19:39.718Z,40.80
2018-12-15T19:22:08.158Z,38.35
2018-12-15T19:24:36.542Z,36.42
2018-12-15T19:27:04.991Z,32.20
2018-12-15T19:29:33.410Z,31.57
2018-12-15T19:32:01.737Z,35.63
2018-12-15T19:34:30.061Z,34.40
2018-12-15T19:36:58.341Z,34.80
2018-12-15T19:39:26.575Z,33.20
2018-12-15T19:41:54.885Z,32.17
2018-12-15T19:44:23.132Z,31.97
2018-12-15T19:46:51.457Z,34.70
2018-12-15T19:49:19.725Z,32.30
2018-12-15T19:51:48.040Z,33.53
2018-12-15T19:54:16.323Z,33.97
2018-12-15T19:56:44.697Z,34.63
2018-12-15T19:59:15.255Z,35.27
2018-12-15T20:01:44.034Z,34.27
2018-12-15T20:04:12.439Z,37.30
2018-12-15T20:06:40.872Z,37.25
2018-12-15T20:09:09.822Z,41.18
2018-12-15T20:11:38.321Z,41.83
2018-12-15T20:14:07.478Z,39.38
2018-12-15T20:16:35.806Z,37.07
2018-12-15T20:19:04.231Z,35.40
2018-12-15T20:23:01.768Z,35.20
2018-12-15T20:25:30.143Z,35.13
2018-12-15T20:27:58.436Z,33.93
2018-12-15T20:30:26.723Z,37.38
2018-12-15T20:32:54.946Z,36.95
2018-12-15T20:35:23.329Z,35.98
2018-12-15T20:37:51.555Z,37.55
2018-12-15T20:40:19.866Z,37.65
2018-12-15T20:42:48.368Z,37.40
2018-12-15T20:45:16.725Z,36.55
2018-12-15T20:47:44.947Z,37.60
2018-12-15T20:50:13.334Z,37.63
2018-12-15T20:52:47.390Z,41.00
2018-12-15T20:55:12.156Z,38.40
2018-12-15T20:57:40.449Z,38.60
2018-12-15T21:00:09.499Z,39.90
2018-12-15T21:02:37.841Z,41.10
2018-12-15T21:05:06.351Z,43.40
2018-12-15T21:07:34.711Z,37.85
2018-12-15T21:10:03.523Z,38.20
2018-12-15T21:12:31.919Z,38.55
2018-12-15T21:15:04.510Z,39.08
2018-12-15T21:17:32.735Z,38.08
2018-12-15T21:20:01.164Z,38.60
2018-12-15T21:22:29.403Z,42.03
2018-12-15T21:24:57.685Z,40.30
2018-12-15T21:27:25.995Z,41.73
2018-12-15T21:29:54.303Z,42.15
2018-12-15T21:32:22.676Z,40.40
2018-12-15T21:34:50.948Z,39.50
2018-12-15T21:37:19.375Z,41.88
2018-12-15T21:39:47.707Z,42.27
2018-12-15T21:42:16.063Z,42.80
2018-12-15T21:44:44.377Z,41.42
2018-12-15T21:47:12.755Z,40.83
2018-12-15T21:49:41.008Z,42.55
2018-12-15T21:52:09.373Z,41.70
2018-12-15T21:54:37.743Z,41.40
2018-12-15T21:57:06.135Z,43.40
2018-12-15T21:59:34.434Z,43.30
2018-12-15T22:02:02.689Z,41.20
2018-12-15T22:04:31.102Z,40.48
2018-12-15T22:06:59.295Z,41.08
2018-12-15T22:09:27.641Z,42.75
2018-12-15T22:11:57.269Z,45.73
2018-12-15T22:14:25.545Z,42.25
2018-12-15T22:16:53.866Z,42.43
2018-12-15T22:19:22.155Z,43.50
2018-12-15T22:21:50.606Z,42.65
2018-12-15T22:24:18.955Z,48.23
2018-12-15T22:26:47.505Z,40.95
2018-12-15T22:29:15.801Z,42.80
2018-12-15T22:31:45.203Z,46.25
2018-12-15T22:34:13.429Z,41.73
2018-12-15T22:36:41.684Z,46.40
2018-12-15T22:39:09.999Z,43.65
2018-12-15T22:41:38.318Z,45.30
2018-12-15T22:44:06.552Z,49.88
2018-12-15T22:46:35.399Z,52.98
2018-12-15T22:49:03.864Z,50.88
2018-12-15T22:51:32.243Z,47.50
2018-12-15T22:54:00.582Z,48.25
2018-12-15T22:56:28.894Z,44.27
2018-12-15T22:58:57.273Z,48.75
2018-12-15T23:01:25.713Z,42.60
2018-12-15T23:03:54.034Z,42.15
2018-12-15T23:06:22.281Z,45.23
2018-12-15T23:08:50.575Z,43.15
2018-12-15T23:11:18.867Z,44.45
2018-12-15T23:13:47.082Z,44.27
2018-12-15T23:16:15.351Z,42.67
2018-12-15T23:18:43.644Z,41.20
2018-12-15T23:21:12.026Z,44.38
2018-12-15T23:23:40.329Z,42.43
2018-12-15T23:26:08.628Z,41.45
2018-12-15T23:28:36.934Z,43.68
2018-12-15T23:31:05.343Z,41.95
2018-12-15T23:33:33.672Z,42.50
2018-12-15T23:36:02.160Z,43.55
2018-12-15T23:38:30.397Z,42.33
2018-12-15T23:40:58.761Z,43.75
2018-12-15T23:43:27.004Z,40.30
2018-12-15T23:45:55.320Z,41.60
2018-12-15T23:48:23.734Z,41.73
2018-12-15T23:50:51.979Z,43.55
2018-12-15T23:53:20.281Z,41.05
2018-12-15T23:55:48.499Z,38.05
2018-12-15T23:58:16.749Z,42.53
